Time;durP1;ratioP1;P1;durP2;ratioP2;P2;SDS_P1;SDS_P2;PMS_P1;PMS_P2;Temp;Humidity;BMP_temperature;BMP_pressure;BME280_temperature;BME280_humidity;BME280_pressure;Samples;Min_cycle;Max_cycle;Signal;HPM_P1;HPM_P2
2021/04/15 00:01:02;;;;;;;14.75;11.32;;;179.70;2252.80;;;;;;4663056;30;20039;-86
2021/04/15 00:04:41;;;;;;;15.45;11.10;;;179.70;2252.80;;;;;;4646209;30;20053;-87
2021/04/15 00:07:33;;;;;;;14.13;9.35;;;179.70;2252.80;;;;;;4706431;30;20037;-86
2021/04/15 00:10:47;;;;;;;16.00;11.35;;;179.70;2252.80;;;;;;4723267;30;20048;-86
2021/04/15 00:14:07;;;;;;;14.60;10.90;;;179.60;2252.80;;;;;;4741294;30;20099;-86
2021/04/15 00:17:39;;;;;;;22.08;15.65;;;179.60;2252.80;;;;;;4740846;30;20040;-87
2021/04/15 00:21:11;;;;;;;18.38;12.00;;;179.70;2252.80;;;;;;4809522;30;20035;-86
2021/04/15 00:24:28;;;;;;;16.70;12.23;;;179.70;2252.80;;;;;;4793240;29;20424;-86
2021/04/15 00:28:03;;;;;;;15.45;11.07;;;179.80;2252.80;;;;;;4763453;30;20039;-86
2021/04/15 00:32:00;;;;;;;11.23;8.48;;;179.80;2252.80;;;;;;4822308;29;20114;-87
2021/04/15 00:35:41;;;;;;;10.80;8.90;;;179.80;2252.80;;;;;;4755174;30;20040;-86
2021/04/15 00:39:20;;;;;;;12.15;8.93;;;179.70;2252.80;;;;;;4788589;30;20040;-87
2021/04/15 00:43:21;;;;;;;;;;;;;;;;;;;;;
2021/04/15 00:46:34;;;;;;;16.27;10.18;;;179.60;2252.80;;;;;;4739109;30;20029;-87
2021/04/15 00:50:07;;;;;;;14.93;10.90;;;179.70;2252.80;;;;;;4738810;30;20030;-86
2021/04/15 00:53:42;;;;;;;13.70;9.93;;;179.60;2252.80;;;;;;4782318;30;20536;-86
2021/04/15 00:56:29;;;;;;;13.15;9.48;;;179.60;2252.80;;;;;;4753201;30;20045;-87
2021/04/15 01:00:06;;;;;;;14.75;10.05;;;179.50;2252.80;;;;;;4759820;30;20043;-86
2021/04/15 01:03:16;;;;;;;11.88;8.75;;;179.60;2252.80;;;;;;4722176;30;20060;-87
2021/04/15 01:09:19;;;;;;;13.15;9.63;;;179.60;2252.80;;;;;;4833513;29;20073;-85
2021/04/15 01:12:46;;;;;;;12.50;8.70;;;179.70;2252.80;;;;;;4892688;29;20070;-85
2021/04/15 01:16:03;;;;;;;11.68;8.68;;;179.70;2252.80;;;;;;4939095;29;20617;-86
2021/04/15 01:19:28;;;;;;;11.48;8.48;;;179.50;2252.80;;;;;;4875961;29;20116;-85
2021/04/15 01:22:47;;;;;;;13.05;9.07;;;179.60;2252.80;;;;;;4846095;29;20022;-85
2021/04/15 01:26:02;;;;;;;24.25;19.13;;;179.60;2252.80;;;;;;4885204;29;20056;-85
2021/04/15 01:29:29;;;;;;;18.27;13.02;;;179.50;2252.80;;;;;;4897763;29;20111;-85
2021/04/15 01:32:47;;;;;;;19.13;13.90;;;179.50;2252.80;;;;;;4898504;29;20100;-85
2021/04/15 01:39:15;;;;;;;15.82;11.98;;;179.50;2252.80;;;;;;5012475;28;20121;-88
2021/04/15 01:41:48;;;;;;;19.27;15.25;;;179.50;2252.80;;;;;;4998694;28;20029;-88
2021/04/15 01:44:28;;;;;;;18.60;14.73;;;179.60;2252.80;;;;;;4997383;28;20442;-88
2021/04/15 01:47:01;;;;;;;19.48;15.15;;;179.50;2252.80;;;;;;4998429;28;20030;-88
2021/04/15 01:49:30;;;;;;;16.63;13.70;;;179.50;2252.80;;;;;;4997853;28;20189;-88
2021/04/15 01:51:57;;;;;;;17.33;12.63;;;179.60;2252.80;;;;;;5015246;28;20080;-88
2021/04/15 01:54:34;;;;;;;15.05;11.38;;;179.50;2252.80;;;;;;4997845;28;20133;-88
2021/04/15 01:57:13;;;;;;;16.92;12.27;;;179.40;2252.80;;;;;;5015327;28;20072;-88
2021/04/15 01:59:47;;;;;;;20.77;14.20;;;179.30;2252.80;;;;;;5015074;28;20366;-88
2021/04/15 02:02:16;;;;;;;16.40;11.57;;;179.40;2252.80;;;;;;5015441;28;20037;-87
2021/04/15 02:05:10;;;;;;;18.17;12.32;;;179.30;2252.80;;;;;;4998588;28;20065;-88
2021/04/15 02:07:59;;;;;;;17.20;12.73;;;179.30;2252.80;;;;;;4998042;28;20114;-89
2021/04/15 02:10:26;;;;;;;17.90;12.45;;;179.30;2252.80;;;;;;4997003;28;20085;-88
2021/04/15 02:12:55;;;;;;;16.45;12.82;;;179.20;2252.80;;;;;;4997926;28;20034;-88
2021/04/15 02:15:31;;;;;;;17.45;12.90;;;179.30;2252.80;;;;;;4998009;28;20057;-88
2021/04/15 02:18:08;;;;;;;18.55;14.30;;;179.30;2252.80;;;;;;4997354;28;20022;-88
2021/04/15 02:20:34;;;;;;;18.92;14.25;;;179.30;2252.80;;;;;;4997563;28;20026;-88
2021/04/15 02:23:23;;;;;;;19.88;13.35;;;179.30;2252.80;;;;;;4997060;28;20034;-88
2021/04/15 02:26:04;;;;;;;20.38;13.15;;;179.50;2252.80;;;;;;4997069;28;20029;-88
2021/04/15 02:28:52;;;;;;;18.02;13.43;;;179.40;2252.80;;;;;;4997417;28;20037;-87
2021/04/15 02:31:20;;;;;;;17.17;12.07;;;179.40;2252.80;;;;;;4997504;28;20026;-88
2021/04/15 02:33:50;;;;;;;15.65;11.60;;;179.40;2252.80;;;;;;4997500;28;20030;-88
2021/04/15 02:36:17;;;;;;;14.88;11.82;;;179.30;2252.80;;;;;;4998589;28;20026;-88
2021/04/15 02:39:06;;;;;;;17.30;11.05;;;179.30;2252.80;;;;;;4997040;28;20510;-88
2021/04/15 02:41:34;;;;;;;17.65;12.38;;;179.40;2252.80;;;;;;4997474;28;20030;-87
2021/04/15 02:44:12;;;;;;;15.35;11.30;;;179.30;2252.80;;;;;;4997119;28;20042;-88
2021/04/15 02:46:45;;;;;;;14.23;11.60;;;179.40;2252.80;;;;;;4997823;28;20064;-88
2021/04/15 02:49:15;;;;;;;14.50;11.77;;;179.40;2252.80;;;;;;4997267;28;20026;-87
2021/04/15 02:51:53;;;;;;;16.08;11.52;;;179.40;2252.80;;;;;;4997392;28;20041;-87
2021/04/15 02:54:31;;;;;;;15.38;12.05;;;179.30;2252.80;;;;;;5015228;28;20109;-87
2021/04/15 02:57:08;;;;;;;16.48;11.85;;;179.40;2252.80;;;;;;4997468;28;20034;-88
2021/04/15 02:59:56;;;;;;;16.58;11.77;;;179.30;2252.80;;;;;;5014457;28;20044;-87
2021/04/15 03:02:27;;;;;;;16.13;12.27;;;179.30;2252.80;;;;;;4997219;28;20030;-87
2021/04/15 03:05:17;;;;;;;16.55;12.65;;;179.40;2252.80;;;;;;4997284;28;20057;-88
2021/04/15 03:07:44;;;;;;;19.92;12.40;;;179.30;2252.80;;;;;;4997609;28;20041;-87
2021/04/15 03:10:17;;;;;;;20.45;12.95;;;179.40;2252.80;;;;;;4997249;28;20030;-87
2021/04/15 03:12:48;;;;;;;16.73;12.52;;;179.30;2252.80;;;;;;4997296;28;20057;-88
2021/04/15 03:15:41;;;;;;;19.92;13.40;;;154.50;2252.80;;;;;;4997610;28;20116;-87
2021/04/15 03:18:34;;;;;;;16.08;11.75;;;179.30;2252.80;;;;;;5014067;28;20037;-87
2021/04/15 03:21:15;;;;;;;15.80;12.10;;;179.30;2252.80;;;;;;4996272;28;20453;-87
2021/04/15 03:23:45;;;;;;;16.48;12.23;;;179.20;2252.80;;;;;;4993138;28;20061;-88
2021/04/15 03:26:30;;;;;;;17.70;13.32;;;179.20;2252.80;;;;;;4977941;28;20030;-87
2021/04/15 03:29:10;;;;;;;16.83;12.25;;;179.20;2252.80;;;;;;4977182;28;20023;-88
2021/04/15 03:31:45;;;;;;;17.08;12.80;;;179.20;2252.80;;;;;;4977783;28;20026;-88
2021/04/15 03:34:23;;;;;;;14.85;11.35;;;179.20;2252.80;;;;;;4994899;28;20109;-88
2021/04/15 03:36:52;;;;;;;15.15;12.20;;;179.30;2252.80;;;;;;4979549;28;20526;-88
2021/04/15 03:39:28;;;;;;;14.40;11.55;;;179.20;2252.80;;;;;;4981771;28;20382;-88
2021/04/15 03:42:01;;;;;;;16.52;12.40;;;179.30;2252.80;;;;;;4981434;28;20027;-88
2021/04/15 03:44:33;;;;;;;17.67;12.70;;;179.30;2252.80;;;;;;4998038;28;20054;-88
2021/04/15 03:47:15;;;;;;;19.23;14.13;;;179.30;2252.80;;;;;;4982341;28;20022;-87
2021/04/15 03:49:46;;;;;;;22.98;16.45;;;179.30;2252.80;;;;;;4983161;28;20023;-87
2021/04/15 03:52:21;;;;;;;19.10;14.68;;;179.20;2252.80;;;;;;5000428;28;20022;-87
2021/04/15 03:54:52;;;;;;;23.38;15.50;;;179.30;2252.80;;;;;;5000272;28;20068;-87
2021/04/15 03:57:21;;;;;;;18.08;14.32;;;179.40;2252.80;;;;;;4999974;28;20060;-87
2021/04/15 04:00:08;;;;;;;15.93;12.35;;;179.40;2252.80;;;;;;5000086;28;20124;-88
2021/04/15 04:02:54;;;;;;;17.75;13.57;;;179.30;2252.80;;;;;;5000211;28;20030;-88
2021/04/15 04:05:25;;;;;;;20.90;14.32;;;179.30;2252.80;;;;;;5000132;28;20030;-88
2021/04/15 04:08:03;;;;;;;17.83;13.38;;;179.30;2252.80;;;;;;4999885;28;20034;-88
2021/04/15 04:10:35;;;;;;;17.70;13.68;;;179.30;2252.80;;;;;;5000469;28;20034;-88
2021/04/15 04:13:16;;;;;;;18.20;14.15;;;179.30;2252.80;;;;;;5000414;28;20041;-88
2021/04/15 04:15:47;;;;;;;22.45;16.25;;;179.30;2252.80;;;;;;5016002;28;20057;-88
2021/04/15 04:18:45;;;;;;;24.35;18.60;;;179.30;2252.80;;;;;;5017179;28;20026;-88
2021/04/15 04:21:24;;;;;;;31.35;22.38;;;179.40;2252.80;;;;;;5017181;28;20461;-87
2021/04/15 04:24:18;;;;;;;29.17;20.83;;;179.40;2252.80;;;;;;4996006;28;20042;-87
2021/04/15 04:27:06;;;;;;;;;;;179.30;2252.80;;;;;;4993551;28;20056;-87
2021/04/15 04:29:54;;;;;;;21.67;15.90;;;179.30;2252.80;;;;;;4980027;28;19906;-87
2021/04/15 04:32:22;;;;;;;38.40;23.65;;;179.20;2252.80;;;;;;4980141;28;20038;-87
2021/04/15 04:34:57;;;;;;;28.95;19.15;;;179.30;2252.80;;;;;;4980134;28;20022;-87
2021/04/15 04:37:40;;;;;;;29.45;19.52;;;179.30;2252.80;;;;;;4979764;28;20050;-87
2021/04/15 04:40:13;;;;;;;27.65;19.30;;;179.30;2252.80;;;;;;4979859;28;20118;-87
2021/04/15 04:42:46;;;;;;;28.73;18.40;;;179.30;2252.80;;;;;;4996021;28;20033;-87
2021/04/15 04:45:15;;;;;;;39.65;23.90;;;179.20;2252.80;;;;;;4995950;28;20037;-87
2021/04/15 04:47:53;;;;;;;49.10;27.77;;;154.50;2252.80;;;;;;4995361;28;20070;-87
2021/04/15 04:50:25;;;;;;;34.70;20.85;;;154.50;2252.80;;;;;;4980202;28;20037;-88
2021/04/15 04:53:03;;;;;;;62.47;35.83;;;154.50;2252.80;;;;;;4980158;28;20485;-88
2021/04/15 04:55:44;;;;;;;53.00;33.60;;;179.20;2252.80;;;;;;4979721;28;20268;-88
2021/04/15 04:58:14;;;;;;;31.00;21.15;;;179.30;2252.80;;;;;;4995829;28;20061;-87
2021/04/15 05:00:46;;;;;;;27.80;20.63;;;179.30;2252.80;;;;;;4995875;28;20032;-88
2021/04/15 05:03:21;;;;;;;35.17;25.10;;;179.40;2252.80;;;;;;4995912;28;20036;-87
2021/04/15 05:05:47;;;;;;;31.02;20.27;;;179.40;2252.80;;;;;;4996331;28;20347;-88
2021/04/15 05:08:22;;;;;;;24.77;16.38;;;179.30;2252.80;;;;;;4979460;28;20026;-88
2021/04/15 05:10:52;;;;;;;25.70;18.77;;;179.50;2252.80;;;;;;4979474;28;20026;-88
2021/04/15 05:13:24;;;;;;;29.27;17.38;;;179.50;2252.80;;;;;;4979340;28;20046;-87
2021/04/15 05:15:50;;;;;;;22.65;14.75;;;179.40;2252.80;;;;;;4995654;28;20058;-88
2021/04/15 05:18:19;;;;;;;27.40;16.67;;;179.40;2252.80;;;;;;4979259;28;20031;-88
2021/04/15 05:20:45;;;;;;;24.77;18.27;;;179.40;2252.80;;;;;;4979319;28;20030;-88
2021/04/15 05:23:33;;;;;;;20.92;15.18;;;179.30;2252.80;;;;;;4995527;28;20030;-88
2021/04/15 05:26:02;;;;;;;39.33;24.95;;;179.30;2252.80;;;;;;4995365;28;20034;-88
2021/04/15 05:28:30;;;;;;;36.67;24.90;;;179.30;2252.80;;;;;;4979071;28;20382;-88
2021/04/15 05:30:57;;;;;;;83.30;49.60;;;179.70;2252.80;;;;;;4995174;28;20062;-88
2021/04/15 05:33:26;;;;;;;39.15;24.70;;;179.30;2252.80;;;;;;4995182;28;20379;-88
2021/04/15 05:36:10;;;;;;;25.02;19.00;;;179.30;2252.80;;;;;;4995176;28;20031;-88
2021/04/15 05:38:52;;;;;;;41.35;26.35;;;179.20;2252.80;;;;;;4994500;28;20046;-88
2021/04/15 05:41:27;;;;;;;35.70;22.70;;;179.30;2252.80;;;;;;4979281;28;20471;-87
2021/04/15 05:43:57;;;;;;;59.50;34.35;;;179.30;2252.80;;;;;;4995673;28;20082;-87
2021/04/15 05:46:27;;;;;;;50.08;28.83;;;179.30;2252.80;;;;;;4994912;28;20053;-87
2021/04/15 05:49:00;;;;;;;37.50;23.38;;;179.40;2252.80;;;;;;4978987;28;20026;-87
2021/04/15 05:51:48;;;;;;;30.90;18.80;;;179.40;2252.80;;;;;;4978613;28;20065;-88
2021/04/15 05:54:17;;;;;;;38.83;24.08;;;179.40;2252.80;;;;;;4993954;28;20038;-88
2021/04/15 05:57:02;;;;;;;48.58;27.75;;;179.60;2252.80;;;;;;4978488;28;20022;-87
2021/04/15 05:59:53;;;;;;;40.78;23.10;;;179.60;2252.80;;;;;;4977872;28;20029;-88
2021/04/15 06:02:41;;;;;;;28.75;17.85;;;179.60;2252.80;;;;;;4995182;28;20030;-89
2021/04/15 06:05:24;;;;;;;43.90;25.45;;;179.50;2252.80;;;;;;4995759;28;20397;-88
2021/04/15 06:07:53;;;;;;;43.50;23.90;;;179.70;2252.80;;;;;;4994591;28;20042;-88
2021/04/15 06:10:25;;;;;;;32.85;19.80;;;179.70;2252.80;;;;;;4978884;28;20031;-88
2021/04/15 06:12:57;;;;;;;57.65;44.67;;;179.70;2252.80;;;;;;4978441;28;20073;-88
2021/04/15 06:15:38;;;;;;;33.30;23.90;;;179.70;2252.80;;;;;;4978248;28;20022;-88
2021/04/15 06:18:37;;;;;;;25.73;17.77;;;179.70;2252.80;;;;;;4978168;28;20069;-88
2021/04/15 06:21:09;;;;;;;20.50;14.75;;;179.70;2252.80;;;;;;4994517;28;20463;-88
2021/04/15 06:23:40;;;;;;;21.48;15.90;;;179.90;2252.80;;;;;;4994391;28;20042;-88
2021/04/15 06:26:23;;;;;;;36.10;25.80;;;179.70;2252.80;;;;;;4995298;28;20030;-89
2021/04/15 06:28:51;;;;;;;26.50;18.38;;;179.90;2252.80;;;;;;4978351;28;20030;-89
2021/04/15 06:31:27;;;;;;;43.80;28.08;;;179.90;2252.80;;;;;;4994535;28;20050;-88
2021/04/15 06:33:56;;;;;;;58.60;36.63;;;180.00;2252.80;;;;;;4978483;28;20034;-88
2021/04/15 06:36:37;;;;;;;26.70;17.20;;;180.00;2252.80;;;;;;4994489;28;20374;-88
2021/04/15 06:39:06;;;;;;;35.15;22.73;;;180.00;2252.80;;;;;;4978243;28;20043;-88
2021/04/15 06:41:47;;;;;;;29.75;22.80;;;179.90;2252.80;;;;;;4994450;28;20037;-88
2021/04/15 06:44:43;;;;;;;44.33;31.90;;;180.00;2252.80;;;;;;4977769;28;20034;-87
2021/04/15 06:47:35;;;;;;;31.90;22.45;;;180.00;2252.80;;;;;;4978047;28;20026;-88
2021/04/15 06:50:17;;;;;;;28.33;18.40;;;180.10;2252.80;;;;;;4972523;28;20034;-88
2021/04/15 06:53:12;;;;;;;24.90;16.10;;;204.80;2252.80;;;;;;4981451;28;20025;-88
2021/04/15 06:55:59;;;;;;;26.55;16.23;;;204.90;2252.80;;;;;;4989099;28;20497;-88
2021/04/15 06:58:43;;;;;;;19.23;15.30;;;204.90;2227.20;;;;;;4997101;28;20033;-89
2021/04/15 07:01:43;;;;;;;17.02;10.85;;;204.90;2176.00;;;;;;4997950;28;20029;-88
2021/04/15 07:04:23;;;;;;;12.38;8.27;;;204.90;2176.00;;;;;;4997328;28;20034;-89
2021/04/15 07:07:07;;;;;;;15.82;12.65;;;204.90;2176.00;;;;;;4998727;28;20026;-88
2021/04/15 07:09:36;;;;;;;16.40;12.38;;;205.00;2099.20;;;;;;4999807;28;20053;-88
2021/04/15 07:12:26;;;;;;;22.00;14.52;;;205.10;2073.60;;;;;;4999800;28;20025;-88
2021/04/15 07:15:10;;;;;;;25.15;19.60;;;205.10;2073.60;;;;;;4999363;28;20041;-88
2021/04/15 07:18:08;;;;;;;27.75;20.80;;;205.20;2073.60;;;;;;5017874;28;20093;-89
2021/04/15 07:21:05;;;;;;;17.20;13.65;;;205.30;2099.20;;;;;;5001699;28;20034;-89
2021/04/15 07:23:54;;;;;;;23.42;14.95;;;205.30;2099.20;;;;;;5017047;28;20038;-89
2021/04/15 07:26:48;;;;;;;30.60;21.58;;;205.30;2073.60;;;;;;5016368;28;20034;-89
2021/04/15 07:29:35;;;;;;;14.38;10.23;;;205.40;2022.40;;;;;;5017279;28;20369;-88
2021/04/15 07:32:19;;;;;;;23.40;13.70;;;205.40;2022.40;;;;;;5000642;28;20060;-88
2021/04/15 07:35:04;;;;;;;24.50;18.83;;;205.40;1971.20;;;;;;5016673;28;20061;-88
2021/04/15 07:37:59;;;;;;;14.38;11.00;;;205.40;1945.60;;;;;;5017127;28;20394;-88
2021/04/15 07:40:45;;;;;;;29.20;20.33;;;205.70;1945.60;;;;;;5000436;28;20032;-88
2021/04/15 07:43:45;;;;;;;18.70;12.23;;;230.50;1945.60;;;;;;5017195;28;20372;-87
2021/04/15 07:46:34;;;;;;;16.08;11.77;;;230.70;2073.60;;;;;;4986489;28;20041;-87
2021/04/15 07:49:25;;;;;;;15.23;11.85;;;230.70;1868.80;;;;;;5017412;28;20081;-87
2021/04/15 07:51:56;;;;;;;16.05;11.77;;;230.90;1843.20;;;;;;5000119;28;20108;-87
2021/04/15 07:54:37;;;;;;;18.70;13.63;;;230.90;1894.40;;;;;;5016980;28;20026;-83
2021/04/15 07:57:34;;;;;;;23.38;15.45;;;231.10;1817.60;;;;;;5015418;28;20025;-83
2021/04/15 08:00:05;;;;;;;25.58;18.30;;;231.20;1740.80;;;;;;4997955;28;20022;-82
2021/04/15 08:02:39;;;;;;;19.83;13.32;;;231.30;1817.60;;;;;;4998935;28;20030;-80
2021/04/15 08:05:33;;;;;;;16.38;12.77;;;256.00;1766.40;;;;;;4999068;28;20117;-81
2021/04/15 08:08:25;;;;;;;;;;;256.10;1715.20;;;;;;4999887;28;20040;-86
2021/04/15 08:11:09;;;;;;;36.08;24.65;;;256.20;1689.60;;;;;;4985750;28;19906;-86
2021/04/15 08:14:13;;;;;;;15.88;11.07;;;256.20;1715.20;;;;;;4998402;28;20478;-79
2021/04/15 08:16:52;;;;;;;29.58;20.40;;;256.10;1689.60;;;;;;4998630;28;20104;-80
2021/04/15 08:19:45;;;;;;;18.00;11.35;;;256.10;1715.20;;;;;;4998982;28;20116;-85
2021/04/15 08:26:08;;;;;;;13.57;10.05;;;256.20;1638.40;;;;;;4997795;28;20042;-88
2021/04/15 08:29:06;;;;;;;15.77;12.50;;;256.30;1664.00;;;;;;4994543;28;20042;-82
2021/04/15 08:31:50;;;;;;;11.00;7.13;;;256.60;1587.20;;;;;;4979667;28;20026;-83
2021/04/15 08:34:43;;;;;;;7.93;5.93;;;256.70;1561.60;;;;;;4996482;28;20464;-83
2021/04/15 08:37:31;;;;;;;11.10;5.97;;;256.80;1510.40;;;;;;4995305;28;20046;-81
2021/04/15 08:40:11;;;;;;;21.45;16.27;;;256.50;1587.20;;;;;;4995219;28;20030;-79
2021/04/15 08:43:10;;;;;;;10.65;7.18;;;256.30;1587.20;;;;;;4995525;28;20124;-83
2021/04/15 08:46:41;;;;;;;12.60;8.27;;;256.00;1561.60;;;;;;4995831;28;20467;-81
2021/04/15 08:49:21;;;;;;;12.32;8.73;;;231.20;1587.20;;;;;;4926950;29;20043;-83
2021/04/15 08:52:24;;;;;;;18.30;13.90;;;231.00;1612.80;;;;;;4995748;28;20033;-84
2021/04/15 08:55:10;;;;;;;29.23;17.50;;;231.10;1638.40;;;;;;4978813;28;20089;-84
2021/04/15 08:57:52;;;;;;;24.73;17.00;;;231.10;1664.00;;;;;;4978840;28;20030;-84
2021/04/15 09:00:40;;;;;;;27.20;21.85;;;231.20;1638.40;;;;;;4995208;28;20069;-80
2021/04/15 09:03:21;;;;;;;12.85;8.40;;;231.30;1612.80;;;;;;4997328;28;20092;-82
2021/04/15 09:06:17;;;;;;;51.40;33.70;;;231.10;1638.40;;;;;;4998982;28;20109;-82
2021/04/15 09:08:55;;;;;;;19.35;14.10;;;231.10;1612.80;;;;;;4996447;28;20026;-83
2021/04/15 09:12:03;;;;;;;15.15;10.98;;;231.10;1612.80;;;;;;5014220;28;20022;-86
2021/04/15 09:15:07;;;;;;;17.13;10.73;;;231.20;1612.80;;;;;;4969416;28;20553;-83
2021/04/15 09:17:38;;;;;;;49.03;31.35;;;231.20;1587.20;;;;;;4996825;28;20030;-81
2021/04/15 09:20:20;;;;;;;50.78;37.15;;;231.10;1664.00;;;;;;4983445;28;20026;-81
2021/04/15 09:23:14;;;;;;;41.50;27.60;;;231.10;1689.60;;;;;;4997227;28;20489;-81
2021/04/15 09:26:11;;;;;;;40.47;29.35;;;231.10;1740.80;;;;;;4995961;28;20028;-79
2021/04/15 09:29:01;;;;;;;32.72;21.95;;;231.10;1740.80;;;;;;4988653;28;20057;-82
2021/04/15 09:31:51;;;;;;;26.42;17.95;;;231.10;1740.80;;;;;;4997282;28;20026;-80
2021/04/15 09:34:50;;;;;;;24.33;14.25;;;231.20;1715.20;;;;;;4999514;28;20097;-82
2021/04/15 09:37:53;;;;;;;24.90;18.00;;;231.20;1638.40;;;;;;5017119;28;20053;-86
2021/04/15 09:40:41;;;;;;;20.95;13.98;;;231.10;1612.80;;;;;;4992561;28;20041;-86
2021/04/15 09:43:33;;;;;;;30.02;17.40;;;231.20;1689.60;;;;;;4978377;28;20057;-83
2021/04/15 09:46:18;;;;;;;40.28;24.90;;;256.00;1715.20;;;;;;4954957;28;20108;-84
2021/04/15 09:49:01;;;;;;;24.70;16.40;;;256.00;1664.00;;;;;;4977576;28;20081;-83
2021/04/15 09:51:51;;;;;;;30.67;19.08;;;256.00;1715.20;;;;;;4977142;28;20037;-83
2021/04/15 09:54:25;;;;;;;18.50;12.50;;;256.00;1638.40;;;;;;4976397;28;20029;-83
2021/04/15 09:57:29;;;;;;;36.10;21.90;;;231.30;1612.80;;;;;;4983090;28;20044;-86
2021/04/15 10:00:06;;;;;;;30.90;20.83;;;231.30;1664.00;;;;;;4973605;28;20501;-82
2021/04/15 10:02:54;;;;;;;28.38;18.30;;;231.30;1664.00;;;;;;4977864;28;20026;-84
2021/04/15 10:05:54;;;;;;;37.75;20.33;;;256.00;1587.20;;;;;;4977311;28;20034;-80
2021/04/15 10:08:56;;;;;;;21.45;14.18;;;231.30;1536.00;;;;;;4978537;28;20022;-81
2021/04/15 10:11:31;;;;;;;16.17;12.73;;;231.20;1561.60;;;;;;4993880;28;20026;-83
2021/04/15 10:14:35;;;;;;;13.95;10.63;;;231.20;1561.60;;;;;;4992107;28;20038;-80
2021/04/15 10:17:24;;;;;;;22.25;14.07;;;231.20;1612.80;;;;;;4978807;28;20438;-81
2021/04/15 10:20:26;;;;;;;22.30;13.57;;;231.10;1689.60;;;;;;4975010;28;20034;-82
2021/04/15 10:23:33;;;;;;;18.83;11.40;;;231.20;1638.40;;;;;;4974694;28;20022;-81
2021/04/15 10:26:08;;;;;;;19.85;13.38;;;231.10;1664.00;;;;;;4916056;29;20040;-81
2021/04/15 10:29:11;;;;;;;13.82;8.15;;;231.10;1638.40;;;;;;4965634;28;20030;-81
2021/04/15 10:31:55;;;;;;;21.50;12.73;;;231.20;1638.40;;;;;;4976609;28;20027;-82
2021/04/15 10:34:45;;;;;;;22.52;15.10;;;231.20;1715.20;;;;;;4977560;28;20651;-83
2021/04/15 10:38:01;;;;;;;22.60;13.85;;;231.20;1664.00;;;;;;4982305;28;20058;-79
2021/04/15 10:40:37;;;;;;;22.25;14.55;;;231.30;1689.60;;;;;;4937477;29;20360;-83
2021/04/15 10:43:12;;;;;;;30.40;17.90;;;231.20;1638.40;;;;;;5012418;28;20046;-81
2021/04/15 10:45:56;;;;;;;26.70;16.48;;;231.20;1638.40;;;;;;4997459;28;20026;-81
2021/04/15 10:48:49;;;;;;;21.25;15.13;;;231.10;1664.00;;;;;;5000867;28;20117;-83
2021/04/15 10:51:47;;;;;;;27.58;15.23;;;231.10;1664.00;;;;;;5000726;28;20076;-79
2021/04/15 10:54:22;;;;;;;19.63;12.80;;;231.10;1689.60;;;;;;5010988;28;20105;-79
2021/04/15 10:56:54;;;;;;;25.77;16.50;;;231.00;1740.80;;;;;;4989524;28;20481;-84
2021/04/15 10:59:37;;;;;;;23.67;15.18;;;231.10;1689.60;;;;;;4999611;28;20474;-83
2021/04/15 11:02:18;;;;;;;26.73;17.20;;;256.10;1664.00;;;;;;4984895;28;20382;-82
2021/04/15 11:04:44;;;;;;;23.73;16.95;;;231.10;1638.40;;;;;;4978078;28;20440;-83
2021/04/15 11:07:26;;;;;;;22.60;13.15;;;231.10;1664.00;;;;;;4999210;28;20110;-75
2021/04/15 11:09:55;;;;;;;19.55;11.82;;;230.90;1612.80;;;;;;5016943;28;20026;-76
2021/04/15 11:12:31;;;;;;;28.98;17.58;;;231.00;1638.40;;;;;;4998958;28;20118;-76
2021/04/15 11:15:06;;;;;;;26.92;18.30;;;231.00;1664.00;;;;;;4985817;28;20065;-83
2021/04/15 11:17:44;;;;;;;19.70;12.68;;;231.00;1638.40;;;;;;4979413;28;20033;-82
2021/04/15 11:20:25;;;;;;;23.65;15.77;;;231.00;1664.00;;;;;;4994469;28;20033;-83
2021/04/15 11:22:59;;;;;;;45.95;31.52;;;230.90;1689.60;;;;;;4978239;28;20490;-82
2021/04/15 11:25:25;;;;;;;36.75;27.17;;;230.90;1664.00;;;;;;4995020;28;20077;-82
2021/04/15 11:27:51;;;;;;;43.42;33.60;;;231.00;1689.60;;;;;;4996214;28;20410;-82
2021/04/15 11:30:36;;;;;;;28.85;20.98;;;231.10;1689.60;;;;;;4980022;28;20042;-82
2021/04/15 11:33:04;;;;;;;21.02;14.98;;;231.10;1689.60;;;;;;4980599;28;20030;-82
2021/04/15 11:35:30;;;;;;;23.17;14.93;;;231.20;1612.80;;;;;;4980357;28;20045;-83
2021/04/15 11:38:19;;;;;;;27.88;18.58;;;256.00;1612.80;;;;;;4991455;28;20054;-82
2021/04/15 11:40:48;;;;;;;23.10;15.75;;;231.20;1689.60;;;;;;4999853;28;20118;-83
2021/04/15 11:43:36;;;;;;;18.48;12.13;;;231.20;1612.80;;;;;;4999860;28;20037;-81
2021/04/15 11:46:23;;;;;;;44.15;27.13;;;231.30;1612.80;;;;;;4999680;28;20026;-83
2021/04/15 11:49:08;;;;;;;48.35;31.23;;;231.30;1587.20;;;;;;5017436;28;20030;-81
2021/04/15 11:51:41;;;;;;;43.17;27.60;;;256.00;1587.20;;;;;;4999323;28;20374;-82
2021/04/15 11:54:26;;;;;;;;;;;256.20;1587.20;;;;;;5000030;28;20120;-82
2021/04/15 11:56:52;;;;;;;33.10;22.98;;;256.00;1536.00;;;;;;4998266;28;19912;-82
2021/04/15 11:59:25;;;;;;;20.30;14.18;;;256.10;1612.80;;;;;;5014877;28;20025;-81
2021/04/15 12:01:54;;;;;;;22.83;15.52;;;256.20;1587.20;;;;;;4999381;28;20026;-83
2021/04/15 12:04:26;;;;;;;15.93;10.32;;;256.30;1664.00;;;;;;4998894;28;20034;-83
2021/04/15 12:07:02;;;;;;;19.80;14.27;;;256.30;1536.00;;;;;;4998976;28;20028;-84
2021/04/15 12:09:37;;;;;;;23.38;16.45;;;256.30;1587.20;;;;;;4998987;28;20030;-79
2021/04/15 12:12:36;;;;;;;25.50;14.02;;;256.30;1536.00;;;;;;5015379;28;20108;-84
2021/04/15 12:15:06;;;;;;;37.65;19.15;;;256.40;1510.40;;;;;;5004547;28;20061;-80
2021/04/15 12:18:11;;;;;;;37.83;23.40;;;256.40;1510.40;;;;;;4998895;28;20068;-82
2021/04/15 12:20:55;;;;;;;32.45;20.95;;;256.40;1510.40;;;;;;4960146;28;20477;-80
2021/04/15 12:23:34;;;;;;;15.77;11.45;;;256.50;1561.60;;;;;;4998859;28;20116;-81
2021/04/15 12:26:07;;;;;;;31.95;21.73;;;256.50;1536.00;;;;;;4998470;28;20037;-82
2021/04/15 12:29:01;;;;;;;26.08;17.15;;;256.50;1510.40;;;;;;4998925;28;20026;-82
2021/04/15 12:31:37;;;;;;;65.65;41.28;;;256.50;1484.80;;;;;;4998478;28;20030;-76
2021/04/15 12:34:30;;;;;;;55.08;35.40;;;256.50;1459.20;;;;;;5016364;28;20030;-77
2021/04/15 12:37:07;;;;;;;35.35;23.80;;;256.50;1484.80;;;;;;5016419;28;20053;-79
2021/04/15 12:39:52;;;;;;;22.13;15.82;;;256.50;1484.80;;;;;;4998621;28;20034;-77
2021/04/15 12:42:25;;;;;;;25.05;14.23;;;256.60;1536.00;;;;;;5015787;28;20112;-78
2021/04/15 12:44:54;;;;;;;15.45;10.15;;;256.70;1510.40;;;;;;4998318;28;20045;-77
2021/04/15 12:47:21;;;;;;;17.02;10.45;;;256.80;1484.80;;;;;;4997826;28;20026;-77
2021/04/15 12:49:47;;;;;;;21.88;14.63;;;256.90;1536.00;;;;;;5015954;28;20036;-79
2021/04/15 12:52:14;;;;;;;19.05;11.70;;;256.90;1536.00;;;;;;4998760;28;20053;-78
2021/04/15 12:54:43;;;;;;;12.18;7.90;;;256.90;1510.40;;;;;;4997702;28;20034;-77
2021/04/15 12:57:13;;;;;;;15.75;10.20;;;256.80;1510.40;;;;;;5014307;28;20026;-76
2021/04/15 12:59:49;;;;;;;11.38;9.18;;;256.70;1484.80;;;;;;4997617;28;20130;-76
2021/04/15 13:02:22;;;;;;;16.42;10.38;;;256.80;1536.00;;;;;;5015472;28;20108;-76
2021/04/15 13:05:00;;;;;;;25.40;15.90;;;256.40;1484.80;;;;;;4997592;28;20038;-78
2021/04/15 13:07:25;;;;;;;25.23;16.55;;;256.30;1561.60;;;;;;4997460;28;20029;-77
2021/04/15 13:10:12;;;;;;;19.67;13.90;;;256.30;1561.60;;;;;;5014312;28;20084;-77
2021/04/15 13:12:48;;;;;;;25.88;17.80;;;256.30;1536.00;;;;;;4997642;28;20458;-78
2021/04/15 13:15:23;;;;;;;37.63;24.63;;;256.30;1561.60;;;;;;4997469;28;20457;-78
2021/04/15 13:17:51;;;;;;;32.95;22.80;;;256.50;1612.80;;;;;;5013896;28;20028;-78
2021/04/15 13:20:40;;;;;;;26.42;18.50;;;256.60;1612.80;;;;;;4997915;28;20030;-79
2021/04/15 13:23:09;;;;;;;23.30;17.73;;;256.60;1536.00;;;;;;4997618;28;20072;-78
2021/04/15 13:25:51;;;;;;;14.63;9.35;;;256.70;1536.00;;;;;;4997468;28;20022;-78
2021/04/15 13:28:19;;;;;;;46.28;28.98;;;256.70;1510.40;;;;;;5014840;28;20121;-78
2021/04/15 13:30:45;;;;;;;27.73;19.83;;;256.50;1510.40;;;;;;5014790;28;20033;-79
2021/04/15 13:33:15;;;;;;;22.50;15.88;;;256.30;1510.40;;;;;;5015190;28;20037;-78
2021/04/15 13:35:49;;;;;;;37.88;25.92;;;256.20;1536.00;;;;;;5013334;28;20037;-81